Time;durP1;ratioP1;P1;durP2;ratioP2;P2;SDS_P1;SDS_P2;PMS_P1;PMS_P2;Temp;Humidity;BMP_temperature;BMP_pressure;BME280_temperature;BME280_humidity;BME280_pressure;Samples;Min_cycle;Max_cycle;Signal;HPM_P1;HPM_P2
2023/07/08 00:01:55;;;;;;;5.50;2.55;;;;;;;-148.88;74.17;-17125.47;5013031;28;20049;-77
2023/07/08 00:04:21;;;;;;;5.75;2.70;;;;;;;-148.88;73.73;-17125.47;5013043;28;20029;-77
2023/07/08 00:06:47;;;;;;;5.15;2.75;;;;;;;-148.88;73.99;-17125.47;5013003;28;20025;-77
2023/07/08 00:09:13;;;;;;;4.70;2.50;;;;;;;-148.88;73.27;-17125.47;4995302;28;20483;-77
2023/07/08 00:11:38;;;;;;;5.10;2.60;;;;;;;-148.88;72.39;-17125.47;5016365;28;20084;-77
2023/07/08 00:14:03;;;;;;;3.55;2.60;;;;;;;-148.88;71.94;-17125.47;5017176;28;20021;-77
2023/07/08 00:16:29;;;;;;;3.83;2.30;;;;;;;-148.88;70.52;-17125.47;5017195;28;20084;-77
2023/07/08 00:18:54;;;;;;;4.30;2.53;;;;;;;-148.88;71.04;-17125.47;5016790;28;20160;-77
2023/07/08 00:21:20;;;;;;;4.25;2.58;;;;;;;-148.88;70.96;-17125.47;5016758;28;20018;-77
2023/07/08 00:23:47;;;;;;;4.05;2.67;;;;;;;-148.88;70.48;-17125.47;5016760;28;20066;-77
2023/07/08 00:26:23;;;;;;;4.88;2.50;;;;;;;-148.88;70.27;-17125.47;5017039;28;20022;-77
2023/07/08 00:28:49;;;;;;;3.83;2.20;;;;;;;-148.88;70.44;-17125.47;5016641;28;20060;-77
2023/07/08 00:31:14;;;;;;;4.88;2.70;;;;;;;-148.88;70.45;-17125.47;5016728;28;20116;-77
2023/07/08 00:33:40;;;;;;;3.50;2.58;;;;;;;-148.88;70.65;-17125.47;5017058;28;20473;-77
2023/07/08 00:36:12;;;;;;;6.22;2.75;;;;;;;-148.88;71.05;-17125.47;5016571;28;20026;-77
2023/07/08 00:38:37;;;;;;;4.47;2.83;;;;;;;-148.88;71.38;-17125.47;5016497;28;20033;-77
2023/07/08 00:41:06;;;;;;;4.65;2.50;;;;;;;-148.88;71.78;-17125.47;5016630;28;20018;-77
2023/07/08 00:43:58;;;;;;;3.92;2.40;;;;;;;-148.88;71.17;-17125.47;5016309;28;20026;-77
2023/07/08 00:46:29;;;;;;;3.50;2.40;;;;;;;-148.88;70.60;-17125.47;5014254;28;20038;-77
2023/07/08 00:49:08;;;;;;;3.95;2.50;;;;;;;-148.88;70.63;-17125.47;5016269;28;20052;-77
2023/07/08 00:51:38;;;;;;;4.43;2.30;;;;;;;-148.88;70.26;-17125.47;4998622;28;20030;-77
2023/07/08 00:54:14;;;;;;;4.28;2.30;;;;;;;-148.88;69.84;-17125.47;5016146;28;20097;-77
2023/07/08 00:56:53;;;;;;;4.13;2.60;;;;;;;-148.88;70.24;-17125.47;5016204;28;20344;-77
2023/07/08 00:59:24;;;;;;;3.53;2.42;;;;;;;-148.88;71.00;-17125.47;4998581;28;20500;-77
2023/07/08 01:01:50;;;;;;;3.80;2.53;;;;;;;-148.88;70.70;-17125.47;4998560;28;20025;-77
2023/07/08 01:04:25;;;;;;;4.28;2.50;;;;;;;-148.88;70.83;-17125.47;5015882;28;20026;-77
2023/07/08 01:06:59;;;;;;;4.38;2.60;;;;;;;-148.88;70.66;-17125.47;5015976;28;20022;-77
2023/07/08 01:09:28;;;;;;;6.45;2.55;;;;;;;-148.88;71.26;-17125.47;5015969;28;20036;-77
2023/07/08 01:11:58;;;;;;;7.18;2.50;;;;;;;-148.88;69.63;-17125.47;4998179;28;20128;-77
2023/07/08 01:14:31;;;;;;;4.35;2.65;;;;;;;-148.88;70.18;-17125.47;4998212;28;20511;-77
2023/07/08 01:16:57;;;;;;;4.87;2.50;;;;;;;-148.88;71.02;-17125.47;4998321;28;20053;-77
2023/07/08 01:19:32;;;;;;;3.25;2.20;;;;;;;-148.88;70.61;-17125.47;5015742;28;20034;-77
2023/07/08 01:21:59;;;;;;;4.00;2.22;;;;;;;-148.88;71.00;-17125.47;5015184;28;20076;-77
2023/07/08 01:24:25;;;;;;;5.53;2.60;;;;;;;-148.88;71.20;-17125.47;4998059;28;20033;-77
2023/07/08 01:26:51;;;;;;;4.65;2.20;;;;;;;-148.88;71.83;-17125.47;5015670;28;20036;-77
2023/07/08 01:29:17;;;;;;;4.20;2.50;;;;;;;-148.88;72.74;-17125.47;4997905;28;20017;-77
2023/07/08 01:31:48;;;;;;;4.20;2.03;;;;;;;-148.88;72.67;-17125.47;5015427;28;20057;-77
2023/07/08 01:34:16;;;;;;;4.32;2.50;;;;;;;-148.88;73.07;-17125.47;5015637;28;20033;-78
2023/07/08 01:36:47;;;;;;;4.95;2.50;;;;;;;-148.88;75.62;-17125.47;4997817;28;20029;-77
2023/07/08 01:39:17;;;;;;;4.07;2.50;;;;;;;-148.88;77.25;-17125.47;5015675;28;20029;-77
2023/07/08 01:41:43;;;;;;;4.10;2.47;;;;;;;-148.88;78.43;-17125.47;4997761;28;20018;-77
2023/07/08 01:44:24;;;;;;;4.80;2.67;;;;;;;-148.88;80.57;-17125.47;5015220;28;20038;-77
2023/07/08 01:46:54;;;;;;;3.30;2.30;;;;;;;-148.88;79.66;-17125.47;5015450;28;20053;-77
2023/07/08 01:49:20;;;;;;;4.35;2.58;;;;;;;-148.88;79.41;-17125.47;5015675;28;20427;-77
2023/07/08 01:51:47;;;;;;;5.75;2.90;;;;;;;-148.88;78.40;-17125.47;5015028;28;20481;-77
2023/07/08 01:54:12;;;;;;;4.65;2.50;;;;;;;-148.88;78.50;-17125.47;4998130;28;20036;-77
2023/07/08 01:56:37;;;;;;;4.25;2.60;;;;;;;-148.88;77.90;-17125.47;5015011;28;20113;-77
2023/07/08 01:59:03;;;;;;;4.78;2.50;;;;;;;-148.88;77.22;-17125.47;5015057;28;20129;-77
2023/07/08 02:01:28;;;;;;;3.78;2.50;;;;;;;-148.88;76.92;-17125.47;5015224;28;20381;-77
2023/07/08 02:03:53;;;;;;;4.55;2.80;;;;;;;-148.88;77.02;-17125.47;5014966;28;20392;-77
2023/07/08 02:06:19;;;;;;;5.53;2.47;;;;;;;-148.88;76.94;-17125.47;5014857;28;20400;-77
2023/07/08 02:08:44;;;;;;;3.95;2.55;;;;;;;-148.88;77.95;-17125.47;5014703;28;20408;-77
2023/07/08 02:11:09;;;;;;;4.93;2.50;;;;;;;-148.88;76.37;-17125.47;4997213;28;20026;-77
2023/07/08 02:13:35;;;;;;;4.35;2.90;;;;;;;-148.88;75.90;-17125.47;4997493;28;20064;-77
2023/07/08 02:16:00;;;;;;;5.93;2.42;;;;;;;-148.88;76.00;-17125.47;5014800;28;20035;-77
2023/07/08 02:18:26;;;;;;;7.13;2.42;;;;;;;-148.88;76.12;-17125.47;5015152;28;20043;-77
2023/07/08 02:20:51;;;;;;;4.45;2.63;;;;;;;-148.88;77.08;-17125.47;5014596;28;20381;-77
2023/07/08 02:23:17;;;;;;;5.45;2.58;;;;;;;-148.88;75.95;-17125.47;5014579;28;20041;-77
2023/07/08 02:25:51;;;;;;;6.47;2.78;;;;;;;-148.88;77.24;-17125.47;5014711;28;20033;-77
2023/07/08 02:28:16;;;;;;;5.53;2.72;;;;;;;-148.88;77.78;-17125.47;5014560;28;20538;-77
2023/07/08 02:30:42;;;;;;;4.00;2.10;;;;;;;-148.88;76.49;-17125.47;5014327;28;20026;-77
2023/07/08 02:33:09;;;;;;;4.75;2.42;;;;;;;-148.88;75.98;-17125.47;5013610;28;20030;-77
2023/07/08 02:35:35;;;;;;;4.65;2.20;;;;;;;-148.88;76.62;-17125.47;5014551;28;20095;-77
2023/07/08 02:38:00;;;;;;;3.95;2.72;;;;;;;-148.88;77.17;-17125.47;5014473;28;20469;-77
2023/07/08 02:40:26;;;;;;;4.10;2.50;;;;;;;-148.88;76.79;-17125.47;5014344;28;20033;-77
2023/07/08 02:42:51;;;;;;;4.15;2.85;;;;;;;-148.88;76.70;-17125.47;4996497;28;20387;-77
2023/07/08 02:45:17;;;;;;;7.88;2.90;;;;;;;-148.88;77.61;-17125.47;5014170;28;20503;-77
2023/07/08 02:47:43;;;;;;;3.97;2.63;;;;;;;-148.88;77.56;-17125.47;5014128;28;20076;-77
2023/07/08 02:50:10;;;;;;;3.75;2.63;;;;;;;-148.88;78.35;-17125.47;5014092;28;20030;-77
2023/07/08 02:52:36;;;;;;;4.03;2.50;;;;;;;-148.88;79.43;-17125.47;5014017;28;20076;-77
2023/07/08 02:55:01;;;;;;;3.78;2.80;;;;;;;-148.88;78.82;-17125.47;5013971;28;20034;-77
2023/07/08 02:57:27;;;;;;;3.72;2.70;;;;;;;-148.88;78.17;-17125.47;5013923;28;20333;-78
2023/07/08 02:59:52;;;;;;;5.55;3.05;;;;;;;-148.88;78.26;-17125.47;5013954;28;20018;-77
2023/07/08 03:02:17;;;;;;;3.95;2.55;;;;;;;-148.88;78.11;-17125.47;5014005;28;20037;-77
2023/07/08 03:04:43;;;;;;;4.88;2.80;;;;;;;-148.88;77.78;-17125.47;5013767;28;20037;-77
2023/07/08 03:07:11;;;;;;;4.53;2.30;;;;;;;-148.88;77.17;-17125.47;5013578;28;20022;-77
2023/07/08 03:09:40;;;;;;;5.28;2.88;;;;;;;-148.88;77.88;-17125.47;5013768;28;20026;-77
2023/07/08 03:12:11;;;;;;;5.75;2.97;;;;;;;-148.88;77.73;-17125.47;5013767;28;20026;-77
2023/07/08 03:14:37;;;;;;;7.55;3.10;;;;;;;-148.88;77.83;-17125.47;5014171;28;20040;-77
2023/07/08 03:17:05;;;;;;;4.18;2.78;;;;;;;-148.88;77.58;-17125.47;5013715;28;20485;-77
2023/07/08 03:19:32;;;;;;;6.63;2.90;;;;;;;-148.88;78.35;-17125.47;5013633;28;20030;-77
2023/07/08 03:21:58;;;;;;;5.28;3.55;;;;;;;-148.88;78.56;-17125.47;5013356;28;20030;-77
2023/07/08 03:24:24;;;;;;;4.20;2.90;;;;;;;-148.88;79.42;-17125.47;5013452;28;20026;-77
2023/07/08 03:26:54;;;;;;;7.78;3.45;;;;;;;-148.88;79.69;-17125.47;5013469;28;20397;-77
2023/07/08 03:29:21;;;;;;;5.95;3.50;;;;;;;-148.88;79.57;-17125.47;5013350;28;20112;-77
2023/07/08 03:31:47;;;;;;;6.32;3.30;;;;;;;-148.88;79.73;-17125.47;5013354;28;20029;-77
2023/07/08 03:34:15;;;;;;;4.75;2.92;;;;;;;-148.88;80.00;-17125.47;5013364;28;20034;-76
2023/07/08 03:36:48;;;;;;;5.03;2.65;;;;;;;-148.88;80.05;-17125.47;5013323;28;20026;-76
2023/07/08 03:39:15;;;;;;;5.10;3.08;;;;;;;-148.88;80.35;-17125.47;4995775;28;20024;-77
2023/07/08 03:41:41;;;;;;;6.28;3.10;;;;;;;-148.88;80.13;-17125.47;5013204;28;20060;-76
2023/07/08 03:44:06;;;;;;;7.45;3.35;;;;;;;-148.88;80.13;-17125.47;5013000;28;20472;-76
2023/07/08 03:46:31;;;;;;;4.35;3.00;;;;;;;-148.88;80.45;-17125.47;5013186;28;20032;-76
2023/07/08 03:48:57;;;;;;;4.82;3.35;;;;;;;-148.88;80.78;-17125.47;5013469;28;20025;-77
2023/07/08 03:51:30;;;;;;;6.10;3.28;;;;;;;-148.88;80.66;-17125.47;5013175;28;20076;-77
2023/07/08 03:53:56;;;;;;;4.75;2.83;;;;;;;-148.88;80.67;-17125.47;5013244;28;20488;-76
2023/07/08 03:56:23;;;;;;;4.28;2.97;;;;;;;-148.88;80.64;-17125.47;5013073;28;20045;-76
2023/07/08 03:58:50;;;;;;;4.95;3.00;;;;;;;-148.88;81.36;-17125.47;5013029;28;20029;-77
2023/07/08 04:01:17;;;;;;;4.32;2.95;;;;;;;-148.88;82.07;-17125.47;5012952;28;20489;-76
2023/07/08 04:03:43;;;;;;;6.25;3.00;;;;;;;-148.88;81.89;-17125.47;5013015;28;20044;-77
2023/07/08 04:06:09;;;;;;;5.72;2.95;;;;;;;-148.88;82.35;-17125.47;5013329;28;20435;-77
2023/07/08 04:08:34;;;;;;;4.70;2.63;;;;;;;-148.88;82.34;-17125.47;5012880;28;20143;-77
2023/07/08 04:10:59;;;;;;;5.32;2.72;;;;;;;-148.88;82.88;-17125.47;4995550;28;20102;-76
2023/07/08 04:13:25;;;;;;;4.18;2.70;;;;;;;-148.88;83.57;-17125.47;5013154;28;20377;-76
2023/07/08 04:15:55;;;;;;;4.07;2.92;;;;;;;-148.88;83.59;-17125.47;5013130;28;20174;-76
2023/07/08 04:18:20;;;;;;;4.40;3.00;;;;;;;-148.88;83.38;-17125.47;5013228;28;20030;-76
2023/07/08 04:20:52;;;;;;;5.32;2.80;;;;;;;-148.88;83.82;-17125.47;5012816;28;20021;-76
2023/07/08 04:23:20;;;;;;;4.88;2.72;;;;;;;-148.88;83.96;-17125.47;5012864;28;20500;-77
2023/07/08 04:25:48;;;;;;;4.97;3.33;;;;;;;-148.88;84.47;-17125.47;5012813;28;20045;-76
2023/07/08 04:28:14;;;;;;;6.22;3.45;;;;;;;-148.88;85.05;-17125.47;5013059;28;20174;-76
2023/07/08 04:30:41;;;;;;;5.78;3.50;;;;;;;-148.88;84.54;-17125.47;4995120;28;20042;-76
2023/07/08 04:33:13;;;;;;;6.13;3.53;;;;;;;-148.88;84.83;-17125.47;5012817;28;20033;-76
2023/07/08 04:35:40;;;;;;;5.25;3.20;;;;;;;-148.88;85.40;-17125.47;5012653;28;20436;-76
2023/07/08 04:38:09;;;;;;;3.97;3.20;;;;;;;-148.88;85.93;-17125.47;5013027;28;20029;-76
2023/07/08 04:40:39;;;;;;;5.18;2.72;;;;;;;-148.88;85.91;-17125.47;5012666;28;20148;-76
2023/07/08 04:43:06;;;;;;;5.72;3.10;;;;;;;-148.88;86.35;-17125.47;5012934;28;20484;-76
2023/07/08 04:45:32;;;;;;;4.32;2.85;;;;;;;-148.88;86.73;-17125.47;4995118;28;20373;-77
2023/07/08 04:47:58;;;;;;;8.40;3.25;;;;;;;-148.88;86.64;-17125.47;5012665;28;20034;-77
2023/07/08 04:50:23;;;;;;;4.38;2.83;;;;;;;-148.88;86.64;-17125.47;5012619;28;20029;-77
2023/07/08 04:52:49;;;;;;;9.60;2.83;;;;;;;-148.88;86.41;-17125.47;5012511;28;20065;-77
2023/07/08 04:55:15;;;;;;;4.32;2.65;;;;;;;-148.88;87.05;-17125.47;5012546;28;20105;-77
2023/07/08 04:57:40;;;;;;;4.57;2.90;;;;;;;-148.88;87.12;-17125.47;5016014;28;20021;-77
2023/07/08 05:00:09;;;;;;;4.85;2.88;;;;;;;-148.88;87.35;-17125.47;5016064;28;20030;-77
2023/07/08 05:02:34;;;;;;;3.90;2.90;;;;;;;-148.88;88.40;-17125.47;5016470;28;20104;-77
2023/07/08 05:04:59;;;;;;;4.80;2.80;;;;;;;-148.88;88.18;-17125.47;5016004;28;20129;-76
2023/07/08 05:07:24;;;;;;;7.45;3.30;;;;;;;-148.88;87.95;-17125.47;4998253;28;20117;-76
2023/07/08 05:09:50;;;;;;;5.07;3.22;;;;;;;-148.88;87.36;-17125.47;5016055;28;20112;-76
2023/07/08 05:12:15;;;;;;;4.35;2.83;;;;;;;-148.88;87.28;-17125.47;5015942;28;20029;-77
2023/07/08 05:14:41;;;;;;;4.45;2.88;;;;;;;-148.88;86.89;-17125.47;5016348;28;20026;-76
2023/07/08 05:17:06;;;;;;;4.00;2.55;;;;;;;-148.88;86.83;-17125.47;5016016;28;20049;-76
2023/07/08 05:19:31;;;;;;;4.80;2.90;;;;;;;-148.88;86.63;-17125.47;5015937;28;20057;-76
2023/07/08 05:21:57;;;;;;;6.10;3.05;;;;;;;-148.88;86.35;-17125.47;4998113;28;20018;-77
2023/07/08 05:24:22;;;;;;;9.13;3.60;;;;;;;-148.88;87.11;-17125.47;5015801;28;20088;-75
2023/07/08 05:26:47;;;;;;;6.07;3.47;;;;;;;-148.88;86.73;-17125.47;5015595;28;20030;-76
2023/07/08 05:29:13;;;;;;;5.03;3.10;;;;;;;-148.88;86.77;-17125.47;5017010;28;20018;-75
2023/07/08 05:31:38;;;;;;;4.95;3.13;;;;;;;-148.88;87.04;-17125.47;5015469;28;20017;-75
2023/07/08 05:34:03;;;;;;;4.22;2.75;;;;;;;-148.88;87.28;-17125.47;5015285;28;20030;-75
2023/07/08 05:36:29;;;;;;;5.78;3.25;;;;;;;-148.88;86.69;-17125.47;4997735;28;20018;-75
2023/07/08 05:38:54;;;;;;;6.45;3.10;;;;;;;-148.88;86.20;-17125.47;4997691;28;20034;-75
2023/07/08 05:41:19;;;;;;;7.68;3.10;;;;;;;-148.88;86.03;-17125.47;5015141;28;20430;-75
2023/07/08 05:43:44;;;;;;;5.22;2.80;;;;;;;-148.88;85.59;-17125.47;5015143;28;20026;-75
2023/07/08 05:46:10;;;;;;;5.80;2.83;;;;;;;-148.88;86.05;-17125.47;5015401;28;20026;-74
2023/07/08 05:48:36;;;;;;;6.20;3.10;;;;;;;-148.88;85.73;-17125.47;5015394;28;20029;-75
2023/07/08 05:51:02;;;;;;;5.45;3.30;;;;;;;-148.88;85.84;-17125.47;5015379;28;20481;-75
2023/07/08 05:53:27;;;;;;;4.72;3.00;;;;;;;-148.88;85.79;-17125.47;5014927;28;20037;-75
2023/07/08 05:55:54;;;;;;;5.10;2.97;;;;;;;-148.88;85.63;-17125.47;5015438;28;20022;-75
2023/07/08 05:58:19;;;;;;;6.63;2.97;;;;;;;-148.88;84.73;-17125.47;5015243;28;20025;-75
2023/07/08 06:00:45;;;;;;;4.70;2.90;;;;;;;-148.88;84.44;-17125.47;5015054;28;20477;-75
2023/07/08 06:03:11;;;;;;;6.60;3.22;;;;;;;-148.88;82.45;-17125.47;4997251;28;20499;-75
2023/07/08 06:05:37;;;;;;;6.60;3.08;;;;;;;-148.88;82.99;-17125.47;5014766;28;20156;-75
2023/07/08 06:08:03;;;;;;;4.70;3.15;;;;;;;-148.88;82.88;-17125.47;5013600;28;20060;-75
2023/07/08 06:10:28;;;;;;;5.45;2.90;;;;;;;-148.88;83.72;-17125.47;5014944;28;20030;-75
2023/07/08 06:12:53;;;;;;;7.38;3.17;;;;;;;-148.88;84.80;-17125.47;5014871;28;20069;-75
2023/07/08 06:15:19;;;;;;;5.38;3.10;;;;;;;-148.88;82.63;-17125.47;5014500;28;20026;-75
2023/07/08 06:17:44;;;;;;;5.65;3.00;;;;;;;-148.88;82.18;-17125.47;5014685;28;20394;-76
2023/07/08 06:20:10;;;;;;;8.57;3.35;;;;;;;-148.88;82.44;-17125.47;5014437;28;20107;-75
2023/07/08 06:22:35;;;;;;;6.78;3.00;;;;;;;-148.88;82.14;-17125.47;5014408;28;20038;-75
2023/07/08 06:25:00;;;;;;;5.88;3.40;;;;;;;-148.88;82.46;-17125.47;5014525;28;20022;-74
2023/07/08 06:27:26;;;;;;;5.15;3.10;;;;;;;-148.88;81.79;-17125.47;5014384;28;20022;-74
2023/07/08 06:29:51;;;;;;;4.78;3.03;;;;;;;-148.88;81.44;-17125.47;5014418;28;20049;-74
2023/07/08 06:32:16;;;;;;;5.68;3.20;;;;;;;-148.88;80.01;-17125.47;5014255;28;20488;-74
2023/07/08 06:34:42;;;;;;;4.93;3.00;;;;;;;-148.88;81.73;-17125.47;5014238;28;20018;-74
2023/07/08 06:37:07;;;;;;;4.15;3.22;;;;;;;-148.88;82.34;-17125.47;4996702;28;20053;-74
2023/07/08 06:39:33;;;;;;;5.50;3.05;;;;;;;-148.88;80.89;-17125.47;4996709;28;20508;-75
2023/07/08 06:41:58;;;;;;;6.18;3.20;;;;;;;-148.88;83.17;-17125.47;5014250;28;20037;-75
2023/07/08 06:44:25;;;;;;;6.75;2.53;;;;;;;-148.88;79.96;-17125.47;4996631;28;20028;-75
2023/07/08 06:46:50;;;;;;;7.15;3.03;;;;;;;-148.88;78.63;-17125.47;5014044;28;20022;-74
2023/07/08 06:49:17;;;;;;;6.65;3.35;;;;;;;-148.88;80.05;-17125.47;4996404;28;20092;-74
2023/07/08 06:51:42;;;;;;;4.93;2.88;;;;;;;-148.88;78.60;-17125.47;5013960;28;20062;-74
2023/07/08 06:54:11;;;;;;;5.50;2.92;;;;;;;-148.88;77.48;-17125.47;5013973;28;20432;-75
2023/07/08 06:56:40;;;;;;;7.38;2.97;;;;;;;-148.88;76.86;-17125.47;4996223;28;20029;-74
2023/07/08 06:59:07;;;;;;;5.80;3.10;;;;;;;-148.88;78.71;-17125.47;5013786;28;20113;-75
2023/07/08 07:01:32;;;;;;;4.80;3.08;;;;;;;-148.88;76.45;-17125.47;5013691;28;20029;-74
2023/07/08 07:03:59;;;;;;;4.28;2.75;;;;;;;-148.88;74.86;-17125.47;4996117;28;20060;-75
2023/07/08 07:06:24;;;;;;;5.53;2.63;;;;;;;-148.88;76.79;-17125.47;5013787;28;20029;-74
2023/07/08 07:08:49;;;;;;;4.18;2.75;;;;;;;-148.88;72.82;-17125.47;5013575;28;20037;-74
2023/07/08 07:11:15;;;;;;;4.88;3.20;;;;;;;-148.88;72.30;-17125.47;5013934;28;20385;-75
2023/07/08 07:13:40;;;;;;;5.78;2.90;;;;;;;-148.88;70.17;-17125.47;5013581;28;20484;-75
2023/07/08 07:16:06;;;;;;;5.68;2.90;;;;;;;-148.88;69.63;-17125.47;5013851;28;20044;-75
2023/07/08 07:18:31;;;;;;;4.60;2.97;;;;;;;-148.88;70.46;-17125.47;5013417;28;20026;-75
2023/07/08 07:20:58;;;;;;;5.43;2.70;;;;;;;-148.88;71.03;-17125.47;5013634;28;20033;-75
2023/07/08 07:23:24;;;;;;;4.07;2.53;;;;;;;-148.88;66.83;-17125.47;5013519;28;20022;-75
2023/07/08 07:25:50;;;;;;;5.55;2.90;;;;;;;-148.88;69.37;-17125.47;5013761;28;20038;-75
2023/07/08 07:28:18;;;;;;;4.20;2.80;;;;;;;-148.88;63.97;-17125.47;5013731;28;20408;-74
2023/07/08 07:30:44;;;;;;;5.22;2.70;;;;;;;-148.88;61.40;-17125.47;4995786;28;20022;-74
2023/07/08 07:33:10;;;;;;;6.95;3.00;;;;;;;-148.88;59.30;-17125.47;5013306;28;20021;-75
2023/07/08 07:35:36;;;;;;;4.93;2.90;;;;;;;-148.88;56.46;-17125.47;5013351;28;20025;-74
2023/07/08 07:38:01;;;;;;;5.88;2.70;;;;;;;-148.88;56.48;-17125.47;5013622;28;20100;-74
2023/07/08 07:40:26;;;;;;;4.05;2.70;;;;;;;-148.88;54.15;-17125.47;5013534;28;20030;-74
2023/07/08 07:42:52;;;;;;;6.22;2.78;;;;;;;-148.88;54.90;-17125.47;5013146;28;20337;-74
2023/07/08 07:45:19;;;;;;;5.07;2.63;;;;;;;-148.88;52.29;-17125.47;5013185;28;20022;-74
2023/07/08 07:47:45;;;;;;;5.18;2.78;;;;;;;-148.88;56.24;-17125.47;4995469;28;20049;-74
2023/07/08 07:50:10;;;;;;;5.30;2.70;;;;;;;-148.88;52.96;-17125.47;5013025;28;20014;-74
2023/07/08 07:52:36;;;;;;;3.88;2.60;;;;;;;-148.88;50.95;-17125.47;5013228;28;20105;-75
2023/07/08 07:55:02;;;;;;;4.35;2.63;;;;;;;-148.88;48.75;-17125.47;5013299;28;20488;-74
2023/07/08 07:57:27;;;;;;;5.15;2.70;;;;;;;-148.88;48.26;-17125.47;5013131;28;20022;-75
2023/07/08 07:59:53;;;;;;;5.35;2.53;;;;;;;-148.88;48.54;-17125.47;5012942;28;20105;-74
2023/07/08 08:02:19;;;;;;;4.70;2.58;;;;;;;-148.88;49.24;-17125.47;5012928;28;20381;-74
2023/07/08 08:04:44;;;;;;;3.92;2.67;;;;;;;-148.88;45.96;-17125.47;5013049;28;20399;-74
2023/07/08 08:07:10;;;;;;;5.05;2.97;;;;;;;-148.88;47.87;-17125.47;5012946;28;20022;-75
2023/07/08 08:09:36;;;;;;;6.15;3.20;;;;;;;-148.88;45.73;-17125.47;5013609;28;20126;-75
2023/07/08 08:12:03;;;;;;;4.18;2.70;;;;;;;-148.88;46.08;-17125.47;5013221;28;20022;-75
2023/07/08 08:14:28;;;;;;;7.50;3.10;;;;;;;-148.88;47.69;-17125.47;5013467;28;20022;-74
2023/07/08 08:16:53;;;;;;;5.40;2.90;;;;;;;-148.88;50.21;-17125.47;5012944;28;20028;-75
2023/07/08 08:19:19;;;;;;;7.10;2.65;;;;;;;-148.88;48.21;-17125.47;5013133;28;20107;-75
2023/07/08 08:21:44;;;;;;;3.78;2.60;;;;;;;-148.88;44.62;-17125.47;5012845;28;20056;-75
2023/07/08 08:24:10;;;;;;;4.88;2.70;;;;;;;-148.88;45.06;-17125.47;5013210;28;20037;-76
2023/07/08 08:26:35;;;;;;;5.18;2.63;;;;;;;-148.88;45.39;-17125.47;5013243;28;20025;-75
2023/07/08 08:29:01;;;;;;;5.95;2.80;;;;;;;-148.88;43.76;-17125.47;5012782;28;20029;-75
2023/07/08 08:31:26;;;;;;;7.38;2.72;;;;;;;-148.88;43.31;-17125.47;5014115;28;20431;-76
2023/07/08 08:33:52;;;;;;;7.43;2.88;;;;;;;-148.88;42.44;-17125.47;4999012;28;20538;-76
2023/07/08 08:36:17;;;;;;;6.22;2.90;;;;;;;-148.88;45.46;-17125.47;5016684;28;20484;-76
2023/07/08 08:38:43;;;;;;;3.83;2.67;;;;;;;-148.88;45.50;-17125.47;5016913;28;20033;-76
2023/07/08 08:41:17;;;;;;;5.00;2.90;;;;;;;-148.88;43.87;-17125.47;5016988;28;20022;-76
2023/07/08 08:43:44;;;;;;;3.33;2.60;;;;;;;-148.88;43.10;-17125.47;5016662;28;20017;-76
2023/07/08 08:46:48;;;;;;;5.35;2.70;;;;;;;-148.88;42.59;-17125.47;5016392;28;20033;-76
2023/07/08 08:49:22;;;;;;;;;;;;;;;-148.88;41.73;-17125.47;4986469;28;20034;-75
2023/07/08 08:51:49;;;;;;;4.82;2.65;;;;;;;-148.88;42.55;-17125.47;5016391;28;19979;-76
2023/07/08 08:54:14;;;;;;;4.75;2.72;;;;;;;-148.88;41.69;-17125.47;5016238;28;20033;-76
2023/07/08 08:56:58;;;;;;;4.82;2.72;;;;;;;-148.88;42.22;-17125.47;5016219;28;20026;-75
2023/07/08 08:59:29;;;;;;;4.97;2.63;;;;;;;-148.88;42.23;-17125.47;5016484;28;20026;-76
2023/07/08 09:01:56;;;;;;;7.03;3.20;;;;;;;-148.88;41.25;-17125.47;5016010;28;20034;-76
2023/07/08 09:04:27;;;;;;;4.72;2.70;;;;;;;-148.88;39.82;-17125.47;4998516;28;20092;-76
2023/07/08 09:07:00;;;;;;;5.03;3.20;;;;;;;-148.88;39.96;-17125.47;5016129;28;20059;-76
2023/07/08 09:09:34;;;;;;;4.65;2.80;;;;;;;-148.88;40.48;-17125.47;5015997;28;20186;-75
2023/07/08 09:12:12;;;;;;;3.72;2.80;;;;;;;-148.88;40.54;-17125.47;5015870;28;20049;-75
2023/07/08 09:14:38;;;;;;;4.70;2.63;;;;;;;-148.88;39.62;-17125.47;4998294;28;20113;-74
2023/07/08 09:17:09;;;;;;;4.88;2.78;;;;;;;-148.88;39.83;-17125.47;4998263;28;20022;-74
2023/07/08 09:19:42;;;;;;;5.78;3.17;;;;;;;-148.88;38.71;-17125.47;5015822;28;20026;-74
2023/07/08 09:22:27;;;;;;;6.07;2.72;;;;;;;-148.88;39.14;-17125.47;5015858;28;20030;-75
2023/07/08 09:24:55;;;;;;;5.07;3.05;;;;;;;-148.88;38.29;-17125.47;4998114;28;20467;-75
2023/07/08 09:27:20;;;;;;;7.50;2.92;;;;;;;-148.88;39.04;-17125.47;5015801;28;20065;-74
2023/07/08 09:29:46;;;;;;;4.50;2.97;;;;;;;-148.88;38.25;-17125.47;5015965;28;20062;-74
2023/07/08 09:32:17;;;;;;;5.85;2.88;;;;;;;-148.88;37.01;-17125.47;5015514;28;20080;-75
2023/07/08 09:34:51;;;;;;;4.45;2.90;;;;;;;-148.88;37.36;-17125.47;5015793;28;20033;-74
2023/07/08 09:37:29;;;;;;;4.30;2.75;;;;;;;-148.88;38.71;-17125.47;5015527;28;20527;-74
2023/07/08 09:39:56;;;;;;;6.70;2.72;;;;;;;-148.88;36.31;-17125.47;5015393;28;20392;-74
2023/07/08 09:42:34;;;;;;;6.15;3.03;;;;;;;-148.88;36.72;-17125.47;5014886;28;20025;-74
2023/07/08 09:45:05;;;;;;;4.78;3.08;;;;;;;-148.88;37.45;-17125.47;5015405;28;20022;-74
2023/07/08 09:47:36;;;;;;;6.22;2.95;;;;;;;-148.88;35.68;-17125.47;5015648;28;20021;-74
2023/07/08 09:50:06;;;;;;;4.88;3.15;;;;;;;-148.88;37.23;-17125.47;5015263;28;20477;-75
2023/07/08 09:52:31;;;;;;;6.15;3.15;;;;;;;-148.88;38.47;-17125.47;5015393;28;20037;-75
2023/07/08 09:54:57;;;;;;;6.07;3.47;;;;;;;-148.88;34.71;-17125.47;5015211;28;20034;-74
2023/07/08 09:57:30;;;;;;;6.72;2.95;;;;;;;-148.88;36.08;-17125.47;5015517;28;20033;-75
2023/07/08 10:00:02;;;;;;;5.78;3.20;;;;;;;-148.88;34.62;-17125.47;5015190;28;20499;-75
2023/07/08 10:02:52;;;;;;;3.88;3.10;;;;;;;-148.88;36.26;-17125.47;5015103;28;20030;-75
2023/07/08 10:05:43;;;;;;;5.97;2.92;;;;;;;-148.88;36.18;-17125.47;5015086;28;20026;-74
2023/07/08 10:08:16;;;;;;;5.00;3.50;;;;;;;-148.88;36.15;-17125.47;5012721;23;20459;-81
2023/07/08 10:10:44;;;;;;;9.55;3.60;;;;;;;-148.88;34.13;-17125.47;5021303;28;20087;-82
2023/07/08 10:13:23;;;;;;;4.43;3.20;;;;;;;-148.88;33.69;-17125.47;5040483;28;20025;-82
2023/07/08 10:15:59;;;;;;;5.50;3.22;;;;;;;-148.88;35.11;-17125.47;5041329;28;20025;-82
2023/07/08 10:18:29;;;;;;;4.70;3.30;;;;;;;-148.88;35.27;-17125.47;5039418;28;20026;-81
2023/07/08 10:20:59;;;;;;;5.97;3.22;;;;;;;-148.88;33.89;-17125.47;5021860;28;20039;-83
2023/07/08 10:23:46;;;;;;;5.53;3.38;;;;;;;-148.88;34.82;-17125.47;5041701;28;20036;-83
2023/07/08 10:26:27;;;;;;;4.60;3.25;;;;;;;-148.88;33.27;-17125.47;5039595;28;20361;-83
2023/07/08 10:29:34;;;;;;;4.35;3.03;;;;;;;-148.88;34.19;-17125.47;5022344;28;20040;-82
2023/07/08 10:32:43;;;;;;;5.47;3.35;;;;;;;-148.88;33.53;-17125.47;4979042;28;20037;-83
2023/07/08 10:35:18;;;;;;;6.15;3.55;;;;;;;-148.88;33.82;-17125.47;4949728;28;20121;-81
2023/07/08 10:38:22;;;;;;;5.78;3.20;;;;;;;-148.88;34.04;-17125.47;5030500;28;20029;-81
2023/07/08 10:40:50;;;;;;;5.53;2.90;;;;;;;-148.88;33.10;-17125.47;5023089;28;20022;-81
2023/07/08 10:43:46;;;;;;;4.28;3.08;;;;;;;-148.88;31.47;-17125.47;5040546;28;20029;-80
2023/07/08 10:46:23;;;;;;;6.90;3.45;;;;;;;-148.88;31.90;-17125.47;5036504;28;20488;-82
2023/07/08 10:48:51;;;;;;;5.45;3.38;;;;;;;-148.88;33.04;-17125.47;5039106;28;20057;-82
2023/07/08 10:51:32;;;;;;;4.68;3.05;;;;;;;-148.88;32.31;-17125.47;5038451;28;20096;-82
2023/07/08 10:54:21;;;;;;;6.32;3.33;;;;;;;-148.88;32.66;-17125.47;5038474;28;20029;-82
2023/07/08 10:56:54;;;;;;;6.07;3.28;;;;;;;-148.88;34.21;-17125.47;5038886;28;20026;-82
2023/07/08 11:00:01;;;;;;;5.60;3.60;;;;;;;-148.88;31.76;-17125.47;5021062;28;20030;-82
2023/07/08 11:03:04;;;;;;;8.02;3.15;;;;;;;-148.88;33.28;-17125.47;5039016;28;20045;-82
2023/07/08 11:05:40;;;;;;;5.20;3.25;;;;;;;-148.88;32.81;-17125.47;5038615;28;20033;-83
2023/07/08 11:08:13;;;;;;;3.50;2.85;;;;;;;-148.88;33.04;-17125.47;5037847;28;20041;-84
2023/07/08 11:10:45;;;;;;;;;;;;;;;-148.88;32.14;-17125.47;5020659;28;20051;-81
2023/07/08 11:13:14;;;;;;;5.35;3.30;;;;;;;-148.88;31.88;-17125.47;5020074;28;19955;-82
2023/07/08 11:15:46;;;;;;;6.03;3.30;;;;;;;-148.88;33.29;-17125.47;5037850;28;20473;-82
2023/07/08 11:18:20;;;;;;;6.60;3.67;;;;;;;-148.88;32.12;-17125.47;5019748;28;20025;-82